Time;durP1;ratioP1;P1;durP2;ratioP2;P2;SDS_P1;SDS_P2;PMS_P1;PMS_P2;Temp;Humidity;BMP_temperature;BMP_pressure;BME280_temperature;BME280_humidity;BME280_pressure;Samples;Min_cycle;Max_cycle;Signal;HPM_P1;HPM_P2
2022/05/03 00:00:02;;;;;;;;;;;;;;;20.49;nan;94945.38;2058576;28;1595;-58
2022/05/03 00:01:09;;;;;;;;;;;;;;;20.50;nan;94944.31;2059557;28;1460;-62
2022/05/03 00:02:10;;;;;;;;;;;;;;;20.48;nan;94941.84;2066144;28;1005;-58
2022/05/03 00:03:14;;;;;;;;;;;;;;;20.47;nan;94947.41;2064081;28;1540;-56
2022/05/03 00:04:18;;;;;;;;;;;;;;;20.47;nan;94940.22;2060000;28;1446;-58
2022/05/03 00:05:38;;;;;;;;;;;;;;;20.46;nan;94941.25;2047337;28;1416;-58
2022/05/03 00:06:40;;;;;;;;;;;;;;;20.55;nan;94939.16;2066081;28;777;-59
2022/05/03 00:07:41;;;;;;;;;;;;;;;20.61;nan;94946.31;2064715;28;1521;-61
2022/05/03 00:08:48;;;;;;;;;;;;;;;20.64;nan;94943.22;2064515;28;1496;-59
2022/05/03 00:09:55;;;;;;;;;;;;;;;20.67;nan;94944.66;2063413;28;1514;-59
2022/05/03 00:11:15;;;;;;;;;;;;;;;20.68;nan;94947.09;2057606;28;1693;-59
2022/05/03 00:12:19;;;;;;;;;;;;;;;20.72;nan;94945.66;2049608;28;987;-60
2022/05/03 00:13:27;;;;;;;;;;;;;;;20.74;nan;94956.94;2060783;28;1643;-59
2022/05/03 00:14:32;;;;;;;;;;;;;;;20.73;nan;94949.94;2062750;28;1558;-59
2022/05/03 00:15:35;;;;;;;;;;;;;;;20.73;nan;94952.59;2057903;28;1969;-59
2022/05/03 00:16:37;;;;;;;;;;;;;;;20.73;nan;94952.59;2048722;28;1469;-63
2022/05/03 00:17:41;;;;;;;;;;;;;;;20.74;nan;94948.09;2059841;28;1549;-59
2022/05/03 00:18:43;;;;;;;;;;;;;;;20.74;nan;94946.25;2057821;28;1613;-60
2022/05/03 00:19:45;;;;;;;;;;;;;;;20.75;nan;94947.88;2062892;28;1471;-60
2022/05/03 00:20:48;;;;;;;;;;;;;;;20.75;nan;94947.88;2059901;28;1421;-61
2022/05/03 00:21:49;;;;;;;;;;;;;;;20.75;nan;94949.75;2072682;28;1103;-59
2022/05/03 00:22:51;;;;;;;;;;;;;;;20.74;nan;94940.91;2072787;28;1649;-60
2022/05/03 00:23:53;;;;;;;;;;;;;;;20.73;nan;94947.28;2061955;28;1476;-60
2022/05/03 00:24:55;;;;;;;;;;;;;;;20.73;nan;94949.13;2065696;28;1096;-59
2022/05/03 00:25:57;;;;;;;;;;;;;;;20.73;nan;94944.59;2065811;28;1060;-59
2022/05/03 00:26:59;;;;;;;;;;;;;;;20.73;nan;94944.59;2063263;28;1553;-61
2022/05/03 00:28:00;;;;;;;;;;;;;;;20.73;nan;94938.44;2054533;28;1668;-59
2022/05/03 00:29:03;;;;;;;;;;;;;;;20.73;nan;94938.44;2061355;28;1813;-61
2022/05/03 00:30:05;;;;;;;;;;;;;;;20.73;nan;94939.25;2065072;28;1541;-59
2022/05/03 00:31:07;;;;;;;;;;;;;;;20.73;nan;94939.25;2064516;28;991;-59
2022/05/03 00:32:09;;;;;;;;;;;;;;;20.73;nan;94941.13;2065096;28;911;-61
2022/05/03 00:33:11;;;;;;;;;;;;;;;20.71;nan;94935.97;2067967;28;1699;-61
2022/05/03 00:34:12;;;;;;;;;;;;;;;20.72;nan;94942.97;2056481;28;1427;-59
2022/05/03 00:35:15;;;;;;;;;;;;;;;20.72;nan;94942.97;2064707;28;1478;-61
2022/05/03 00:36:17;;;;;;;;;;;;;;;20.71;nan;94938.66;2063344;28;1977;-60
2022/05/03 00:37:19;;;;;;;;;;;;;;;20.73;nan;94941.13;2059527;28;1500;-61
2022/05/03 00:38:21;;;;;;;;;;;;;;;20.72;nan;94942.97;2064361;28;1594;-60
2022/05/03 00:39:22;;;;;;;;;;;;;;;20.73;nan;94939.25;2056850;28;1001;-59
2022/05/03 00:40:25;;;;;;;;;;;;;;;20.73;nan;94939.25;2064445;28;1614;-60
2022/05/03 00:41:29;;;;;;;;;;;;;;;20.73;nan;94939.25;2060702;28;1606;-60
2022/05/03 00:42:30;;;;;;;;;;;;;;;20.73;nan;94933.91;2063836;28;1853;-60
2022/05/03 00:43:38;;;;;;;;;;;;;;;20.73;nan;94944.59;2057002;28;1110;-60
2022/05/03 00:44:56;;;;;;;;;;;;;;;20.73;nan;94941.94;2059700;28;1515;-60
2022/05/03 00:46:10;;;;;;;;;;;;;;;20.73;nan;94933.91;2058764;28;1573;-59
2022/05/03 00:47:14;;;;;;;;;;;;;;;20.73;nan;94939.25;2056456;28;1525;-63
2022/05/03 00:48:34;;;;;;;;;;;;;;;20.72;nan;94937.63;2072771;28;987;-60
2022/05/03 00:50:02;;;;;;;;;;;;;;;20.70;nan;94942.34;2060176;28;1633;-60
2022/05/03 00:51:15;;;;;;;;;;;;;;;20.71;nan;94948.50;2063477;28;1730;-60
2022/05/03 00:52:16;;;;;;;;;;;;;;;20.70;nan;94936.22;2060375;28;1622;-60
2022/05/03 00:53:27;;;;;;;;;;;;;;;20.69;nan;94938.06;2057386;28;1611;-59
2022/05/03 00:54:48;;;;;;;;;;;;;;;20.69;nan;94937.25;2064605;28;1635;-60
2022/05/03 00:56:25;;;;;;;;;;;;;;;20.68;nan;94931.06;2065097;28;1003;-59
2022/05/03 00:57:37;;;;;;;;;;;;;;;20.70;nan;94937.03;2023620;29;1744;-59
2022/05/03 00:58:47;;;;;;;;;;;;;;;20.69;nan;94932.72;2020708;29;1680;-59
2022/05/03 00:59:52;;;;;;;;;;;;;;;20.69;nan;94927.38;2036572;28;1503;-59
2022/05/03 01:00:53;;;;;;;;;;;;;;;20.67;nan;94933.97;2065090;28;998;-57
2022/05/03 01:02:05;;;;;;;;;;;;;;;20.59;nan;94932.34;2057300;28;1724;-57
2022/05/03 01:03:09;;;;;;;;;;;;;;;20.54;nan;94929.50;2064199;28;1445;-58
2022/05/03 01:04:17;;;;;;;;;;;;;;;20.51;nan;94927.25;2062827;28;1507;-57
2022/05/03 01:05:26;;;;;;;;;;;;;;;20.50;nan;94928.31;2059553;28;1419;-56
2022/05/03 01:06:37;;;;;;;;;;;;;;;20.48;nan;94927.69;2065581;28;1126;-57
2022/05/03 01:07:41;;;;;;;;;;;;;;;20.46;nan;94925.25;2058995;28;1511;-57
2022/05/03 01:09:04;;;;;;;;;;;;;;;20.45;nan;94922.78;2057766;28;1014;-56
2022/05/03 01:10:26;;;;;;;;;;;;;;;20.45;nan;94928.94;2057156;28;1683;-57
2022/05/03 01:11:40;;;;;;;;;;;;;;;20.43;nan;94923.00;2057311;28;1529;-56
2022/05/03 01:13:01;;;;;;;;;;;;;;;20.43;nan;94930.16;2052329;28;1275;-57
2022/05/03 01:14:21;;;;;;;;;;;;;;;20.43;nan;94927.50;2052843;28;1265;-57
2022/05/03 01:15:23;;;;;;;;;;;;;;;20.42;nan;94925.88;2056544;28;1514;-57
2022/05/03 01:16:29;;;;;;;;;;;;;;;20.41;nan;94929.59;2057479;28;1942;-58
2022/05/03 01:17:37;;;;;;;;;;;;;;;20.41;nan;94924.25;2056793;28;1477;-57
2022/05/03 01:18:51;;;;;;;;;;;;;;;20.38;nan;94925.50;2057078;28;1109;-57
2022/05/03 01:19:55;;;;;;;;;;;;;;;20.39;nan;94932.44;2057254;28;1087;-59
2022/05/03 01:21:23;;;;;;;;;;;;;;;20.37;nan;94929.16;2056439;28;1414;-58
2022/05/03 01:22:25;;;;;;;;;;;;;;;20.39;nan;94928.97;2057553;28;993;-58
2022/05/03 01:23:39;;;;;;;;;;;;;;;20.39;nan;94926.31;2057572;28;1090;-58
2022/05/03 01:24:52;;;;;;;;;;;;;;;20.39;nan;94926.31;2049248;28;1648;-57
2022/05/03 01:26:12;;;;;;;;;;;;;;;20.40;nan;94922.59;2057719;28;1691;-56
2022/05/03 01:27:32;;;;;;;;;;;;;;;20.41;nan;94919.72;2056579;28;1489;-58
2022/05/03 01:28:52;;;;;;;;;;;;;;;20.40;nan;94923.41;2057377;28;943;-57
2022/05/03 01:29:57;;;;;;;;;;;;;;;20.39;nan;94919.13;2059210;28;1480;-58
2022/05/03 01:31:04;;;;;;;;;;;;;;;20.38;nan;94920.16;2065379;28;1037;-57
2022/05/03 01:32:07;;;;;;;;;;;;;;;20.38;nan;94908.66;2065709;28;851;-58
2022/05/03 01:33:09;;;;;;;;;;;;;;;20.40;nan;94914.59;2058869;28;1653;-59
2022/05/03 01:34:13;;;;;;;;;;;;;;;20.38;nan;94919.34;2058765;28;1101;-59
2022/05/03 01:35:14;;;;;;;;;;;;;;;20.39;nan;94916.44;2056988;28;809;-60
2022/05/03 01:36:23;;;;;;;;;;;;;;;20.40;nan;94914.59;2052659;28;1586;-59
2022/05/03 01:37:36;;;;;;;;;;;;;;;20.38;nan;94909.47;2066487;28;1033;-57
2022/05/03 01:38:41;;;;;;;;;;;;;;;20.39;nan;94910.28;2066583;28;1049;-58
2022/05/03 01:40:05;;;;;;;;;;;;;;;20.40;nan;94909.25;2064399;28;1548;-60
2022/05/03 01:41:19;;;;;;;;;;;;;;;20.43;nan;94908.81;2066105;28;1179;-60
2022/05/03 01:42:23;;;;;;;;;;;;;;;20.45;nan;94901.44;2059647;28;1599;-60
2022/05/03 01:43:27;;;;;;;;;;;;;;;20.46;nan;94903.06;2058991;28;1125;-59
2022/05/03 01:44:38;;;;;;;;;;;;;;;20.46;nan;94906.56;2058855;28;1022;-61
2022/05/03 01:45:48;;;;;;;;;;;;;;;20.47;nan;94905.53;2058922;28;1073;-60
2022/05/03 01:46:53;;;;;;;;;;;;;;;20.48;nan;94904.47;2054468;28;1056;-60
2022/05/03 01:47:59;;;;;;;;;;;;;;;20.49;nan;94905.31;2053430;28;1392;-61
2022/05/03 01:50:41;;;;;;;;;;;;;;;20.49;nan;94908.81;2056670;28;1515;-60
2022/05/03 01:51:56;;;;;;;;;;;;;;;20.49;nan;94895.47;2058831;28;1018;-60
2022/05/03 01:53:00;;;;;;;;;;;;;;;20.49;nan;94905.31;2058731;28;1655;-63
2022/05/03 01:54:24;;;;;;;;;;;;;;;20.49;nan;94905.31;2050249;28;986;-61
2022/05/03 01:55:26;;;;;;;;;;;;;;;20.48;nan;94903.66;2053658;28;1530;-59
2022/05/03 01:56:38;;;;;;;;;;;;;;;20.49;nan;94905.31;2059144;28;749;-64
2022/05/03 01:57:58;;;;;;;;;;;;;;;20.48;nan;94907.16;2058697;28;1693;-65
2022/05/03 01:59:04;;;;;;;;;;;;;;;20.49;nan;94900.81;2052961;28;976;-64
2022/05/03 02:00:07;;;;;;;;;;;;;;;20.49;nan;94905.31;2073897;28;1538;-66
2022/05/03 02:01:24;;;;;;;;;;;;;;;20.50;nan;94904.28;2073894;28;1281;-66
2022/05/03 02:02:34;;;;;;;;;;;;;;;20.48;nan;94904.47;2063464;28;1743;-66
2022/05/03 02:03:49;;;;;;;;;;;;;;;20.48;nan;94901.00;2066289;28;1030;-66
2022/05/03 02:04:59;;;;;;;;;;;;;;;20.49;nan;94910.66;2064389;28;1172;-66
2022/05/03 02:06:14;;;;;;;;;;;;;;;20.49;nan;94905.31;2059316;28;1113;-65
2022/05/03 02:07:27;;;;;;;;;;;;;;;20.48;nan;94903.66;2058702;28;1038;-66
2022/05/03 02:08:38;;;;;;;;;;;;;;;20.49;nan;94905.31;2059109;28;1082;-66
2022/05/03 02:09:52;;;;;;;;;;;;;;;20.48;nan;94903.66;2053210;28;1684;-66
2022/05/03 02:11:00;;;;;;;;;;;;;;;20.48;nan;94904.47;2054083;28;1660;-65
2022/05/03 02:12:01;;;;;;;;;;;;;;;20.49;nan;94908.00;2055864;28;1528;-66
2022/05/03 02:13:09;;;;;;;;;;;;;;;20.49;nan;94910.66;2066767;28;978;-65
2022/05/03 02:15:44;;;;;;;;;;;;;;;20.49;nan;94905.31;2066792;28;1108;-67
2022/05/03 02:16:49;;;;;;;;;;;;;;;20.50;nan;94904.28;2058668;28;1899;-66
2022/05/03 02:17:51;;;;;;;;;;;;;;;20.49;nan;94905.31;2058155;28;1106;-66
2022/05/03 02:19:12;;;;;;;;;;;;;;;20.50;nan;94906.94;2058893;28;1029;-67
2022/05/03 02:20:37;;;;;;;;;;;;;;;20.50;nan;94906.94;2057250;28;1556;-66
2022/05/03 02:21:52;;;;;;;;;;;;;;;20.48;nan;94891.13;2051894;28;1045;-67
2022/05/03 02:22:57;;;;;;;;;;;;;;;20.48;nan;94899.16;2058763;28;1109;-66
2022/05/03 02:24:10;;;;;;;;;;;;;;;20.48;nan;94898.31;2058303;28;1474;-64
2022/05/03 02:25:36;;;;;;;;;;;;;;;20.49;nan;94908.00;2063604;28;1523;-66
2022/05/03 02:26:48;;;;;;;;;;;;;;;20.47;nan;94896.69;2065596;28;1493;-67
2022/05/03 02:28:02;;;;;;;;;;;;;;;20.48;nan;94895.66;2064636;28;1641;-66
2022/05/03 02:29:06;;;;;;;;;;;;;;;20.48;nan;94903.66;2058781;28;1336;-66
2022/05/03 02:30:08;;;;;;;;;;;;;;;20.47;nan;94896.69;2060383;28;1471;-66
2022/05/03 02:31:14;;;;;;;;;;;;;;;20.48;nan;94903.66;2066659;28;961;-63
2022/05/03 02:32:22;;;;;;;;;;;;;;;20.47;nan;94899.38;2062506;28;1156;-63
2022/05/03 02:33:29;;;;;;;;;;;;;;;20.44;nan;94897.13;2053306;28;1528;-65
2022/05/03 02:34:30;;;;;;;;;;;;;;;20.42;nan;94888.50;2059001;28;1820;-64
2022/05/03 02:35:34;;;;;;;;;;;;;;;20.42;nan;94896.53;2058670;28;1085;-65
2022/05/03 02:36:43;;;;;;;;;;;;;;;20.43;nan;94890.13;2058571;28;1114;-64
2022/05/03 02:37:48;;;;;;;;;;;;;;;20.41;nan;94900.22;2058841;28;1958;-65
2022/05/03 02:38:54;;;;;;;;;;;;;;;20.40;nan;94890.56;2064378;28;1479;-64
2022/05/03 02:39:59;;;;;;;;;;;;;;;20.39;nan;94896.94;2059869;28;1601;-64
2022/05/03 02:41:02;;;;;;;;;;;;;;;20.38;nan;94898.00;2051749;28;1757;-65
2022/05/03 02:42:05;;;;;;;;;;;;;;;20.39;nan;94888.94;2057324;28;1575;-65
2022/05/03 02:43:09;;;;;;;;;;;;;;;20.37;nan;94889.13;2059733;28;1530;-65
2022/05/03 02:44:11;;;;;;;;;;;;;;;20.38;nan;94895.31;2048979;28;1416;-62
2022/05/03 02:45:14;;;;;;;;;;;;;;;20.37;nan;94891.81;2056953;28;1831;-61
2022/05/03 02:46:18;;;;;;;;;;;;;;;20.37;nan;94891.81;2054308;28;1484;-64
2022/05/03 02:47:28;;;;;;;;;;;;;;;20.36;nan;94894.69;2058420;28;1537;-63
2022/05/03 02:48:38;;;;;;;;;;;;;;;20.36;nan;94894.69;2064291;28;1705;-61
2022/05/03 02:49:40;;;;;;;;;;;;;;;20.36;nan;94889.34;2058651;28;1030;-62
2022/05/03 02:50:42;;;;;;;;;;;;;;;20.35;nan;94888.53;2060690;28;1581;-62
2022/05/03 02:51:46;;;;;;;;;;;;;;;20.34;nan;94892.22;2065413;28;1537;-60
2022/05/03 02:52:48;;;;;;;;;;;;;;;20.34;nan;94886.88;2050438;29;1022;-59
2022/05/03 02:54:00;;;;;;;;;;;;;;;20.34;nan;94887.72;2070427;28;1470;-58
2022/05/03 02:55:04;;;;;;;;;;;;;;;20.34;nan;94889.53;2065428;28;1504;-60
2022/05/03 02:56:12;;;;;;;;;;;;;;;20.37;nan;94886.47;2053216;28;1634;-60
2022/05/03 02:57:13;;;;;;;;;;;;;;;20.37;nan;94889.13;2057616;28;1911;-59
2022/05/03 02:58:15;;;;;;;;;;;;;;;20.37;nan;94883.00;2056899;28;1587;-58
2022/05/03 03:02:29;;;;;;;;;;;;;;;20.06;nan;94890.72;2064612;28;1484;-66
2022/05/03 03:03:40;;;;;;;;;;;;;;;17.56;nan;94886.50;2066238;28;1148;-61
2022/05/03 03:04:54;;;;;;;;;;;;;;;16.71;nan;94888.28;2061564;28;1655;-62
2022/05/03 03:05:59;;;;;;;;;;;;;;;15.72;nan;94889.78;2060998;28;986;-61
2022/05/03 03:07:02;;;;;;;;;;;;;;;15.49;nan;94893.38;2056624;28;1451;-62
2022/05/03 03:08:04;;;;;;;;;;;;;;;15.37;nan;94882.41;2061420;28;1758;-61
2022/05/03 03:09:06;;;;;;;;;;;;;;;15.23;nan;94885.88;2062444;28;1430;-63
2022/05/03 03:10:12;;;;;;;;;;;;;;;15.20;nan;94891.53;2060338;28;1541;-62
2022/05/03 03:11:36;;;;;;;;;;;;;;;15.10;nan;94897.06;2063811;28;1450;-61
2022/05/03 03:12:42;;;;;;;;;;;;;;;15.06;nan;94894.97;2066195;28;1968;-62
2022/05/03 03:13:47;;;;;;;;;;;;;;;14.81;nan;94894.38;2050353;28;1705;-62
2022/05/03 03:14:54;;;;;;;;;;;;;;;14.80;nan;94888.25;2059256;28;1466;-62
2022/05/03 03:15:55;;;;;;;;;;;;;;;14.88;nan;94893.47;2065088;28;1493;-62
2022/05/03 03:17:07;;;;;;;;;;;;;;;15.06;nan;94885.22;2065674;28;1121;-62
2022/05/03 03:18:13;;;;;;;;;;;;;;;14.69;nan;94888.69;2053146;28;1973;-60
2022/05/03 03:19:36;;;;;;;;;;;;;;;14.88;nan;94888.19;2057551;28;1858;-61
2022/05/03 03:20:42;;;;;;;;;;;;;;;14.86;nan;94895.47;2056873;28;1579;-62
2022/05/03 03:21:46;;;;;;;;;;;;;;;14.83;nan;94890.53;2059982;28;1417;-62
2022/05/03 03:22:47;;;;;;;;;;;;;;;14.85;nan;94893.84;2064270;28;1593;-62
2022/05/03 03:23:51;;;;;;;;;;;;;;;14.61;nan;94894.81;2059997;28;1456;-62
2022/05/03 03:24:54;;;;;;;;;;;;;;;14.62;nan;94893.00;2058178;28;1441;-62
2022/05/03 03:25:57;;;;;;;;;;;;;;;14.41;nan;94893.66;2057587;28;1612;-62
2022/05/03 03:27:00;;;;;;;;;;;;;;;14.49;nan;94894.41;2058783;28;1505;-62
2022/05/03 03:28:04;;;;;;;;;;;;;;;14.39;nan;94899.09;2057410;28;1645;-61
2022/05/03 03:29:07;;;;;;;;;;;;;;;14.36;nan;94898.63;2061613;28;1001;-62
2022/05/03 03:30:09;;;;;;;;;;;;;;;14.33;nan;94894.50;2057547;28;1448;-57
2022/05/03 03:31:11;;;;;;;;;;;;;;;14.27;nan;94884.66;2056254;28;1545;-61
2022/05/03 03:32:15;;;;;;;;;;;;;;;14.26;nan;94883.84;2064562;28;1543;-61
2022/05/03 03:33:17;;;;;;;;;;;;;;;14.37;nan;94890.53;2064234;28;1827;-61
2022/05/03 03:34:20;;;;;;;;;;;;;;;14.24;nan;94901.66;2059230;28;1452;-62
2022/05/03 03:35:22;;;;;;;;;;;;;;;14.36;nan;94893.34;2054283;28;1627;-60
2022/05/03 03:36:26;;;;;;;;;;;;;;;14.31;nan;94896.50;2056018;28;1514;-61
2022/05/03 03:37:29;;;;;;;;;;;;;;;14.21;nan;94903.84;2060015;28;1911;-62
2022/05/03 03:38:35;;;;;;;;;;;;;;;14.21;nan;94906.50;2057203;28;1550;-66
2022/05/03 03:39:38;;;;;;;;;;;;;;;14.38;nan;94897.47;2059980;28;1496;-61
2022/05/03 03:40:45;;;;;;;;;;;;;;;14.30;nan;94905.44;2053332;28;1665;-60
2022/05/03 03:41:48;;;;;;;;;;;;;;;14.27;nan;94900.50;2057022;28;1726;-62
2022/05/03 03:42:49;;;;;;;;;;;;;;;14.27;nan;94900.50;2062525;28;1530;-60
2022/05/03 03:43:52;;;;;;;;;;;;;;;14.33;nan;94898.97;2064018;28;1046;-61
2022/05/03 03:45:07;;;;;;;;;;;;;;;14.40;nan;94906.03;2062413;28;1491;-61
2022/05/03 03:46:09;;;;;;;;;;;;;;;14.34;nan;94901.47;2059367;28;1400;-61
2022/05/03 03:47:11;;;;;;;;;;;;;;;14.42;nan;94903.22;2054730;28;1621;-62
2022/05/03 03:48:13;;;;;;;;;;;;;;;14.10;nan;94906.88;2053444;28;1590;-61
2022/05/03 03:49:14;;;;;;;;;;;;;;;15.02;nan;94902.44;2061743;28;1142;-61
2022/05/03 03:50:16;;;;;;;;;;;;;;;15.20;nan;94910.06;2055669;28;1424;-61
2022/05/03 03:51:18;;;;;;;;;;;;;;;14.95;nan;94910.25;2059561;28;1772;-60
2022/05/03 03:52:20;;;;;;;;;;;;;;;14.96;nan;94905.78;2054913;28;1544;-62
2022/05/03 03:53:22;;;;;;;;;;;;;;;14.93;nan;94912.25;2058396;28;1581;-60
2022/05/03 03:54:24;;;;;;;;;;;;;;;14.85;nan;94912.34;2055435;28;1722;-61
2022/05/03 03:55:26;;;;;;;;;;;;;;;14.71;nan;94923.72;2055786;28;1194;-61
2022/05/03 03:56:28;;;;;;;;;;;;;;;14.66;nan;94915.44;2055752;28;1019;-61
2022/05/03 03:57:30;;;;;;;;;;;;;;;14.74;nan;94918.06;2055749;28;1013;-62
2022/05/03 03:58:32;;;;;;;;;;;;;;;15.18;nan;94912.03;2058675;28;1958;-61
2022/05/03 03:59:34;;;;;;;;;;;;;;;15.50;nan;94916.19;2058949;28;1423;-59
2022/05/03 04:00:36;;;;;;;;;;;;;;;15.64;nan;94910.06;2056196;28;1384;-62
2022/05/03 04:01:38;;;;;;;;;;;;;;;15.75;nan;94916.72;2055219;28;1518;-62
2022/05/03 04:02:40;;;;;;;;;;;;;;;15.70;nan;94913.81;2056263;28;1726;-61
2022/05/03 04:03:43;;;;;;;;;;;;;;;15.63;nan;94910.25;2039329;28;1011;-62
2022/05/03 04:04:44;;;;;;;;;;;;;;;15.60;nan;94915.94;2048966;28;1228;-60
2022/05/03 04:05:46;;;;;;;;;;;;;;;15.76;nan;94917.53;2055774;28;1653;-61
2022/05/03 04:06:53;;;;;;;;;;;;;;;15.91;nan;94918.41;2056098;28;863;-59
2022/05/03 04:07:55;;;;;;;;;;;;;;;15.91;nan;94915.75;2056394;28;918;-60
2022/05/03 04:08:56;;;;;;;;;;;;;;;15.93;nan;94920.84;2061241;28;1915;-61
2022/05/03 04:09:58;;;;;;;;;;;;;;;15.96;nan;94923.97;2053257;28;1842;-60
2022/05/03 04:11:12;;;;;;;;;;;;;;;15.84;nan;94920.94;2054886;28;1545;-60
2022/05/03 04:12:14;;;;;;;;;;;;;;;15.69;nan;94922.78;2055435;28;1634;-58
2022/05/03 04:13:16;;;;;;;;;;;;;;;15.75;nan;94922.03;2054581;28;1646;-59
2022/05/03 04:14:17;;;;;;;;;;;;;;;16.31;nan;94917.03;2051823;28;1323;-61
2022/05/03 04:15:19;;;;;;;;;;;;;;;16.77;nan;94916.69;2051241;28;1439;-61
2022/05/03 04:16:21;;;;;;;;;;;;;;;17.14;nan;94922.75;2055579;28;1007;-61
2022/05/03 04:17:22;;;;;;;;;;;;;;;17.42;nan;94914.78;2055788;28;1026;-62
2022/05/03 04:18:44;;;;;;;;;;;;;;;17.62;nan;94920.25;2056216;28;1907;-62
2022/05/03 04:19:45;;;;;;;;;;;;;;;17.84;nan;94922.81;2050056;28;1676;-61
2022/05/03 04:20:47;;;;;;;;;;;;;;;17.96;nan;94920.47;2055291;28;1650;-60
2022/05/03 04:21:50;;;;;;;;;;;;;;;18.05;nan;94925.41;2056299;28;1587;-64
2022/05/03 04:22:51;;;;;;;;;;;;;;;18.14;nan;94917.25;2057708;28;1419;-62
2022/05/03 04:23:53;;;;;;;;;;;;;;;18.20;nan;94919.94;2065427;28;1090;-62
2022/05/03 04:24:54;;;;;;;;;;;;;;;18.25;nan;94914.03;2065213;28;1023;-62
2022/05/03 04:25:56;;;;;;;;;;;;;;;18.31;nan;94913.22;2060718;28;1010;-62
2022/05/03 04:26:58;;;;;;;;;;;;;;;18.35;nan;94914.44;2060504;28;1452;-63
2022/05/03 04:27:59;;;;;;;;;;;;;;;18.37;nan;94909.75;2065069;28;1046;-62
2022/05/03 04:29:01;;;;;;;;;;;;;;;18.41;nan;94919.00;2065784;28;1014;-62
2022/05/03 04:30:03;;;;;;;;;;;;;;;18.43;nan;94913.47;2064671;28;1019;-62
2022/05/03 04:31:05;;;;;;;;;;;;;;;18.46;nan;94913.06;2064750;28;1021;-62
2022/05/03 04:32:07;;;;;;;;;;;;;;;18.47;nan;94918.19;2065508;28;1062;-63
2022/05/03 04:33:09;;;;;;;;;;;;;;;18.49;nan;94916.13;2065603;28;1129;-63
2022/05/03 04:34:11;;;;;;;;;;;;;;;18.51;nan;94916.75;2065902;28;1096;-61
2022/05/03 04:35:12;;;;;;;;;;;;;;;18.53;nan;94920.03;2065584;28;1109;-63
2022/05/03 04:36:14;;;;;;;;;;;;;;;18.54;nan;94916.34;2065799;28;1065;-62
2022/05/03 04:37:15;;;;;;;;;;;;;;;18.58;nan;94918.59;2061161;28;1025;-59
2022/05/03 04:38:17;;;;;;;;;;;;;;;18.59;nan;94926.41;2059681;28;2001;-62
2022/05/03 04:39:19;;;;;;;;;;;;;;;18.60;nan;94919.25;2072503;28;1097;-62
2022/05/03 04:40:20;;;;;;;;;;;;;;;18.63;nan;94919.66;2072371;28;1097;-62
2022/05/03 04:41:23;;;;;;;;;;;;;;;18.65;nan;94919.47;2064883;28;1288;-62
2022/05/03 04:42:24;;;;;;;;;;;;;;;18.68;nan;94919.09;2064798;28;756;-63
2022/05/03 04:43:26;;;;;;;;;;;;;;;18.69;nan;94920.72;2064857;28;1077;-62
2022/05/03 04:44:27;;;;;;;;;;;;;;;18.69;nan;94918.06;2065115;28;975;-62
2022/05/03 04:45:29;;;;;;;;;;;;;;;18.72;nan;94917.66;2064670;28;1361;-59
2022/05/03 04:46:31;;;;;;;;;;;;;;;18.72;nan;94918.50;2064858;28;935;-61
2022/05/03 04:47:32;;;;;;;;;;;;;;;18.74;nan;94920.94;2064642;28;1344;-61
2022/05/03 04:48:34;;;;;;;;;;;;;;;18.75;nan;94923.41;2060390;28;1106;-63
2022/05/03 04:49:35;;;;;;;;;;;;;;;18.76;nan;94924.22;2060383;28;1095;-61
2022/05/03 04:50:37;;;;;;;;;;;;;;;18.78;nan;94924.84;2064921;28;1011;-63
2022/05/03 04:51:38;;;;;;;;;;;;;;;18.78;nan;94927.50;2065107;28;1106;-63
2022/05/03 04:52:40;;;;;;;;;;;;;;;18.79;nan;94930.97;2064769;28;1030;-62
2022/05/03 04:53:42;;;;;;;;;;;;;;;18.81;nan;94929.75;2065176;28;1129;-63
2022/05/03 04:54:43;;;;;;;;;;;;;;;18.82;nan;94931.38;2065635;28;1618;-62
2022/05/03 04:55:45;;;;;;;;;;;;;;;18.82;nan;94931.38;2065733;28;1114;-62
2022/05/03 04:56:51;;;;;;;;;;;;;;;18.83;nan;94930.34;2065652;28;1093;-61
2022/05/03 04:57:53;;;;;;;;;;;;;;;18.84;nan;94934.69;2065733;28;1029;-63
2022/05/03 04:58:55;;;;;;;;;;;;;;;18.86;nan;94927.28;2065455;28;1911;-63
2022/05/03 04:59:56;;;;;;;;;;;;;;;18.87;nan;94928.94;2061210;28;995;-62
2022/05/03 05:00:58;;;;;;;;;;;;;;;18.82;nan;94928.72;2060373;28;1365;-63
2022/05/03 05:02:00;;;;;;;;;;;;;;;18.88;nan;94930.56;2065507;28;1006;-63
2022/05/03 05:03:01;;;;;;;;;;;;;;;18.89;nan;94932.22;2065312;28;974;-62
2022/05/03 05:04:03;;;;;;;;;;;;;;;18.89;nan;94931.38;2065670;28;1046;-62
2022/05/03 05:05:05;;;;;;;;;;;;;;;18.90;nan;94933.88;2061429;28;1579;-62
2022/05/03 05:06:07;;;;;;;;;;;;;;;18.92;nan;94930.97;2057825;28;999;-62
2022/05/03 05:07:10;;;;;;;;;;;;;;;18.92;nan;94931.84;2057756;28;1101;-62
2022/05/03 05:08:11;;;;;;;;;;;;;;;18.92;nan;94931.84;2057862;28;1192;-63
2022/05/03 05:09:13;;;;;;;;;;;;;;;18.94;nan;94937.75;2059274;28;1101;-62
2022/05/03 05:10:24;;;;;;;;;;;;;;;18.96;nan;94932.22;2059627;28;1025;-62
2022/05/03 05:11:26;;;;;;;;;;;;;;;18.96;nan;94937.56;2054541;28;1468;-62
2022/05/03 05:12:28;;;;;;;;;;;;;;;18.97;nan;94940.00;2054956;28;1253;-62
2022/05/03 05:13:30;;;;;;;;;;;;;;;18.98;nan;94936.34;2059108;28;997;-63
2022/05/03 05:14:32;;;;;;;;;;;;;;;18.99;nan;94937.16;2059234;28;1234;-63
2022/05/03 05:15:33;;;;;;;;;;;;;;;19.00;nan;94936.13;2058930;28;1049;-62
2022/05/03 05:16:35;;;;;;;;;;;;;;;19.00;nan;94933.47;2059237;28;1017;-63
2022/05/03 05:17:37;;;;;;;;;;;;;;;19.03;nan;94937.56;2059282;28;1109;-63
2022/05/03 05:18:38;;;;;;;;;;;;;;;19.03;nan;94937.56;2058393;28;1993;-63
2022/05/03 05:19:40;;;;;;;;;;;;;;;19.03;nan;94933.03;2058665;28;1025;-63
2022/05/03 05:20:41;;;;;;;;;;;;;;;19.05;nan;94940.84;2059168;28;1367;-63
2022/05/03 05:21:43;;;;;;;;;;;;;;;19.06;nan;94942.47;2058450;28;931;-63
2022/05/03 05:22:45;;;;;;;;;;;;;;;19.07;nan;94944.13;2053425;28;1094;-62
2022/05/03 05:24:10;;;;;;;;;;;;;;;19.07;nan;94936.16;2058865;28;2421;-62
2022/05/03 05:25:13;;;;;;;;;;;;;;;19.08;nan;94935.09;2059264;28;1082;-63
2022/05/03 05:26:14;;;;;;;;;;;;;;;19.09;nan;94942.06;2059163;28;1026;-63
2022/05/03 05:27:16;;;;;;;;;;;;;;;19.09;nan;94937.56;2059205;28;1021;-62
2022/05/03 05:28:19;;;;;;;;;;;;;;;19.10;nan;94944.53;2059360;28;1185;-63
2022/05/03 05:29:20;;;;;;;;;;;;;;;19.12;nan;94941.66;2058971;28;1008;-63
2022/05/03 05:30:22;;;;;;;;;;;;;;;19.11;nan;94940.03;2058596;28;1121;-63
2022/05/03 05:31:24;;;;;;;;;;;;;;;19.12;nan;94942.50;2059107;28;1061;-62
2022/05/03 05:32:25;;;;;;;;;;;;;;;19.13;nan;94940.66;2058832;28;1058;-62
2022/05/03 05:33:27;;;;;;;;;;;;;;;19.13;nan;94938.00;2058899;28;995;-63
2022/05/03 05:34:29;;;;;;;;;;;;;;;19.14;nan;94944.94;2049917;28;1052;-62
2022/05/03 05:35:30;;;;;;;;;;;;;;;19.13;nan;94938.81;2058907;28;1705;-58
2022/05/03 05:36:32;;;;;;;;;;;;;;;19.13;nan;94949.44;2058953;28;1097;-63
2022/05/03 05:37:33;;;;;;;;;;;;;;;19.16;nan;94948.22;2058572;28;1014;-62
2022/05/03 05:38:35;;;;;;;;;;;;;;;19.16;nan;94942.91;2059243;28;1019;-63
2022/05/03 05:39:37;;;;;;;;;;;;;;;19.16;nan;94942.91;2058964;28;1906;-62
2022/05/03 05:40:38;;;;;;;;;;;;;;;19.16;nan;94954.38;2059389;28;1006;-62
2022/05/03 05:41:40;;;;;;;;;;;;;;;19.17;nan;94947.19;2059059;28;1072;-62
2022/05/03 05:42:42;;;;;;;;;;;;;;;19.17;nan;94952.53;2058833;28;1080;-63
2022/05/03 05:43:43;;;;;;;;;;;;;;;19.18;nan;94940.88;2058992;28;1682;-62
2022/05/03 05:44:45;;;;;;;;;;;;;;;19.19;nan;94947.81;2057565;28;1094;-61
2022/05/03 05:45:47;;;;;;;;;;;;;;;19.19;nan;94943.31;2050436;28;1152;-62
2022/05/03 05:46:48;;;;;;;;;;;;;;;19.20;nan;94950.25;2058044;28;1124;-63
2022/05/03 05:47:50;;;;;;;;;;;;;;;19.19;nan;94948.63;2058985;28;935;-59
2022/05/03 05:48:53;;;;;;;;;;;;;;;19.21;nan;94951.09;2059183;28;1002;-61
2022/05/03 05:49:54;;;;;;;;;;;;;;;19.22;nan;94947.41;2059081;28;1602;-62
2022/05/03 05:50:56;;;;;;;;;;;;;;;19.22;nan;94942.91;2059010;28;1058;-62
2022/05/03 05:53:33;;;;;;;;;;;;;;;19.23;nan;94949.03;2058643;28;1648;-63
2022/05/03 05:54:35;;;;;;;;;;;;;;;19.24;nan;94950.69;2058797;28;1161;-63
2022/05/03 05:55:36;;;;;;;;;;;;;;;19.25;nan;94954.19;2059046;28;1126;-63
2022/05/03 05:56:40;;;;;;;;;;;;;;;19.24;nan;94960.53;2054775;28;1094;-63
2022/05/03 05:57:42;;;;;;;;;;;;;;;19.24;nan;94958.69;2054129;28;1591;-62
2022/05/03 05:58:43;;;;;;;;;;;;;;;19.25;nan;94959.50;2059047;28;1018;-62
2022/05/03 05:59:45;;;;;;;;;;;;;;;19.26;nan;94961.94;2058585;28;1959;-63
2022/05/03 06:00:47;;;;;;;;;;;;;;;19.26;nan;94959.28;2058789;28;1020;-63
2022/05/03 06:01:51;;;;;;;;;;;;;;;19.25;nan;94957.66;2058906;28;1157;-62
2022/05/03 06:02:53;;;;;;;;;;;;;;;19.24;nan;94958.69;2058761;28;1164;-62